71.1°F
Current conditions from King Hill
Updated every 5 minutes
 
  Wednesday July 23, 2014

Station Historical Data
Daily Summary for May 6, 2011 Units:  Metric    English   Both
« Previous Day
Next Day »
Daily Weekly Monthly Yearly Custom
  High: Low: Average:
Temperature: 15.3 °C 2.1 °C 9.2 °C
Dew Point: 5.9 °C 0.6 °C 2.8 °C
Humidity: 92% 42% 67%
Wind Speed: 17.7km/h 1.6km/h 6km/h
Wind Gust: 29km/h - -
Wind- - SW
Pressure: 1009 hPa 1006.3 hPa -
Precipitation: 0 mm    
Historical Graphs
 
 
Tabular Data for May 6, 2011
Time Temperature Dew Point Pressure Wind Wind Speed Wind Gust Humidity Daily Rainfall
00:05 3.3 °C 1.8 °C 1008.7 hPa WSW 1.6 km/h 11.3 km/h 90% 0 mm
00:10 3.2 °C 1.7 °C 1008.7 hPa WSW 1.6 km/h 12.9 km/h 90% 0 mm
00:15 3.2 °C 1.7 °C 1009 hPa WSW 8 km/h 17.7 km/h 90% 0 mm
00:20 3.2 °C 1.6 °C 1009 hPa WSW 3.2 km/h 17.7 km/h 89% 0 mm
00:25 3.2 °C 1.6 °C 1008.7 hPa WSW 6.4 km/h 12.9 km/h 89% 0 mm
00:30 3.1 °C 1.5 °C 1008.4 hPa SW 8 km/h 12.9 km/h 89% 0 mm
00:35 3.1 °C 1.4 °C 1008.4 hPa SSW 6.4 km/h 12.9 km/h 89% 0 mm
00:40 2.9 °C 1.3 °C 1008 hPa SW 8 km/h 14.5 km/h 89% 0 mm
00:45 2.9 °C 1.4 °C 1008 hPa SW 8 km/h 14.5 km/h 90% 0 mm
00:50 2.8 °C 1.3 °C 1008 hPa SW 4.8 km/h 12.9 km/h 90% 0 mm
00:55 2.7 °C 1.2 °C 1008 hPa SW 4.8 km/h 12.9 km/h 90% 0 mm
01:00 2.7 °C 1.2 °C 1008 hPa WSW 6.4 km/h 11.3 km/h 90% 0 mm
01:05 2.7 °C 1.1 °C 1008 hPa SW 6.4 km/h 11.3 km/h 89% 0 mm
01:10 2.7 °C 1.1 °C 1008 hPa SW 4.8 km/h 12.9 km/h 89% 0 mm
01:15 2.7 °C 1.1 °C 1008 hPa WSW 4.8 km/h 12.9 km/h 89% 0 mm
01:20 2.7 °C 1.1 °C 1008 hPa WSW 3.2 km/h 12.9 km/h 89% 0 mm
01:25 2.7 °C 1.1 °C 1008 hPa WSW 1.6 km/h 9.7 km/h 89% 0 mm
01:30 2.7 °C 1.1 °C 1008 hPa SW 4.8 km/h 11.3 km/h 89% 0 mm
01:35 2.8 °C 1.2 °C 1007.7 hPa SW 4.8 km/h 16.1 km/h 89% 0 mm
01:40 2.8 °C 1 °C 1008 hPa WSW 1.6 km/h 16.1 km/h 88% 0 mm
01:45 2.8 °C 1.1 °C 1008 hPa WSW 3.2 km/h 9.7 km/h 88% 0 mm
01:50 2.8 °C 1 °C 1007.7 hPa SW 1.6 km/h 8 km/h 88% 0 mm
01:55 2.8 °C 1 °C 1007.7 hPa SW 3.2 km/h 8 km/h 88% 0 mm
02:00 2.8 °C 1 °C 1007.7 hPa Calm   9.7 km/h 88% 0 mm
02:05 2.8 °C 1 °C 1007.7 hPa SW 4.8 km/h 9.7 km/h 88% 0 mm
02:10 2.8 °C 1 °C 1007.7 hPa WSW 3.2 km/h 9.7 km/h 88% 0 mm
02:15 2.7 °C 0.9 °C 1007.7 hPa SW 4.8 km/h 8 km/h 88% 0 mm
02:20 2.7 °C 0.9 °C 1007.7 hPa Calm   8 km/h 88% 0 mm
02:25 2.6 °C 0.8 °C 1007.3 hPa Calm   6.4 km/h 88% 0 mm
02:30 2.5 °C 0.9 °C 1007.3 hPa Calm   6.4 km/h 89% 0 mm
02:35 2.3 °C 0.7 °C 1007.3 hPa WSW 1.6 km/h 6.4 km/h 89% 0 mm
02:40 2.3 °C 0.7 °C 1007.7 hPa WSW 1.6 km/h 6.4 km/h 89% 0 mm
02:45 2.2 °C 0.7 °C 1007.7 hPa Calm   6.4 km/h 90% 0 mm
02:50 2.1 °C 0.7 °C 1007.7 hPa Calm   4.8 km/h 90% 0 mm
02:55 2.1 °C 0.6 °C 1007.7 hPa Calm   4.8 km/h 90% 0 mm
03:00 2.1 °C 0.7 °C 1007.7 hPa Calm   4.8 km/h 91% 0 mm
03:05 2.2 °C 0.9 °C 1007.7 hPa SW 1.6 km/h 9.7 km/h 91% 0 mm
03:10 2.3 °C 0.9 °C 1007.7 hPa Calm   9.7 km/h 91% 0 mm
03:20 2.2 °C 0.8 °C 1007.7 hPa SW 1.6 km/h 4.8 km/h 90% 0 mm
03:25 2.3 °C 0.9 °C 1007.7 hPa SW 4.8 km/h 9.7 km/h 91% 0 mm
03:30 2.3 °C 1 °C 1007.7 hPa SW 3.2 km/h 9.7 km/h 91% 0 mm
03:35 2.3 °C 1 °C 1007.7 hPa SW 1.6 km/h 6.4 km/h 91% 0 mm
03:40 2.3 °C 1 °C 1007.7 hPa Calm   6.4 km/h 91% 0 mm
03:45 2.3 °C 1 °C 1008 hPa Calm   6.4 km/h 91% 0 mm
03:50 2.4 °C 1.1 °C 1007.7 hPa SW 1.6 km/h 6.4 km/h 91% 0 mm
03:55 2.4 °C 1.1 °C 1007.7 hPa Calm   6.4 km/h 91% 0 mm
04:00 2.4 °C 1.1 °C 1007.7 hPa Calm   4.8 km/h 91% 0 mm
04:05 2.4 °C 1.1 °C 1007.7 hPa Calm   4.8 km/h 91% 0 mm
04:10 2.5 °C 1.2 °C 1008 hPa SW 1.6 km/h 6.4 km/h 91% 0 mm
04:15 2.5 °C 1.2 °C 1008 hPa Calm   6.4 km/h 91% 0 mm
04:20 2.5 °C 1.2 °C 1008 hPa SW 1.6 km/h 6.4 km/h 91% 0 mm
04:25 2.5 °C 1.2 °C 1008 hPa SW 4.8 km/h 6.4 km/h 91% 0 mm
04:30 2.6 °C 1.4 °C 1008 hPa SSW 3.2 km/h 8 km/h 92% 0 mm
04:35 2.6 °C 1.4 °C 1008 hPa SSW 4.8 km/h 8 km/h 92% 0 mm
04:40 2.6 °C 1.4 °C 1007.7 hPa SSW 1.6 km/h 8 km/h 92% 0 mm
04:45 2.6 °C 1.2 °C 1007.7 hPa Calm   8 km/h 91% 0 mm
04:50 2.6 °C 1.2 °C 1007.7 hPa SSW 1.6 km/h 11.3 km/h 91% 0 mm
04:55 2.5 °C 1.2 °C 1007.7 hPa SSW 1.6 km/h 11.3 km/h 91% 0 mm
05:00 2.5 °C 1.2 °C 1007.7 hPa SW 4.8 km/h 8 km/h 91% 0 mm
05:05 2.5 °C 1.2 °C 1007.7 hPa SSW 3.2 km/h 8 km/h 91% 0 mm
05:10 2.6 °C 1.2 °C 1007.7 hPa SSW 1.6 km/h 8 km/h 91% 0 mm
05:15 2.6 °C 1.2 °C 1007.7 hPa SSW 1.6 km/h 8 km/h 91% 0 mm
05:20 2.6 °C 1.3 °C 1007.7 hPa SSW 4.8 km/h 8 km/h 91% 0 mm
05:25 2.7 °C 1.3 °C 1007.7 hPa SW 4.8 km/h 9.7 km/h 91% 0 mm
05:35 2.7 °C 1.3 °C 1007.7 hPa SSW 1.6 km/h 9.7 km/h 91% 0 mm
05:40 2.7 °C 1.3 °C 1007.3 hPa Calm   9.7 km/h 91% 0 mm
05:45 2.7 °C 1.3 °C 1007.7 hPa Calm   6.4 km/h 91% 0 mm
05:50 2.6 °C 1.3 °C 1007.7 hPa SW 6.4 km/h 8 km/h 91% 0 mm
05:55 2.6 °C 1.2 °C 1007.7 hPa SSW 3.2 km/h 9.7 km/h 91% 0 mm
06:00 2.6 °C 1.2 °C 1007.7 hPa SW 3.2 km/h 9.7 km/h 91% 0 mm
06:05 2.4 °C 1.1 °C 1007.7 hPa SSW 4.8 km/h 9.7 km/h 91% 0 mm
06:10 2.4 °C 1.1 °C 1007.7 hPa SW 4.8 km/h 11.3 km/h 91% 0 mm
06:15 2.5 °C 1.2 °C 1007.7 hPa SSW 1.6 km/h 11.3 km/h 91% 0 mm
06:20 2.5 °C 1.2 °C 1007.7 hPa SSW 3.2 km/h 11.3 km/h 91% 0 mm
06:25 2.5 °C 1.2 °C 1007.7 hPa SSW 4.8 km/h 9.7 km/h 91% 0 mm
06:30 2.5 °C 1.2 °C 1007.7 hPa SSW 4.8 km/h 9.7 km/h 91% 0 mm
06:35 2.5 °C 1.2 °C 1007.7 hPa SSW 6.4 km/h 11.3 km/h 91% 0 mm
06:40 2.6 °C 1.1 °C 1008 hPa SW 4.8 km/h 12.9 km/h 90% 0 mm
06:45 2.6 °C 1.1 °C 1008 hPa SW 6.4 km/h 12.9 km/h 90% 0 mm
06:50 2.8 °C 1.3 °C 1008 hPa SW 4.8 km/h 12.9 km/h 90% 0 mm
06:55 3 °C 1.5 °C 1008 hPa SSW 4.8 km/h 11.3 km/h 90% 0 mm
07:00 3.2 °C 1.6 °C 1008 hPa SSW 6.4 km/h 14.5 km/h 89% 0 mm
07:05 3.3 °C 1.7 °C 1008 hPa SSW 6.4 km/h 14.5 km/h 89% 0 mm
07:10 3.6 °C 1.8 °C 1008 hPa SSW 8 km/h 17.7 km/h 88% 0 mm
07:15 3.9 °C 1.9 °C 1007.7 hPa SSW 8 km/h 17.7 km/h 87% 0 mm
07:20 4.2 °C 2.1 °C 1008 hPa SSW 8 km/h 16.1 km/h 86% 0 mm
07:25 4.4 °C 2.2 °C 1008 hPa SW 3.2 km/h 16.1 km/h 85% 0 mm
07:30 4.7 °C 2.3 °C 1008 hPa SW 11.3 km/h 16.1 km/h 84% 0 mm
07:35 4.9 °C 1.9 °C 1008 hPa SSW 11.3 km/h 22.5 km/h 81% 0 mm
07:40 5.1 °C 2.1 °C 1008 hPa SSW 9.7 km/h 22.5 km/h 81% 0 mm
07:45 5.3 °C 2.1 °C 1008 hPa SSW 9.7 km/h 16.1 km/h 80% 0 mm
07:50 5.4 °C 2.1 °C 1007.7 hPa SSW 11.3 km/h 27.4 km/h 79% 0 mm
07:55 5.6 °C 2.2 °C 1007.7 hPa SSW 9.7 km/h 27.4 km/h 79% 0 mm
08:00 5.8 °C 2.2 °C 1007.7 hPa SSW 12.9 km/h 20.9 km/h 78% 0 mm
08:10 6.2 °C 2.6 °C 1007.7 hPa SSW 8 km/h 19.3 km/h 78% 0 mm
08:15 6.3 °C 2.6 °C 1007.7 hPa SSW 11.3 km/h 19.3 km/h 77% 0 mm
08:20 6.5 °C 2.6 °C 1007.7 hPa SW 11.3 km/h 20.9 km/h 76% 0 mm
08:25 6.8 °C 2.7 °C 1007.7 hPa SSW 8 km/h 20.9 km/h 75% 0 mm
08:30 6.9 °C 2.6 °C 1007.7 hPa SW 11.3 km/h 22.5 km/h 74% 0 mm
08:40 7.2 °C 2.9 °C 1007.7 hPa SSW 9.7 km/h 19.3 km/h 74% 0 mm
08:45 7.4 °C 3.1 °C 1007.7 hPa SSW 8 km/h 19.3 km/h 74% 0 mm
08:50 7.7 °C 2.7 °C 1007.3 hPa SSW 9.7 km/h 19.3 km/h 71% 0 mm
08:55 7.8 °C 2.7 °C 1007.3 hPa SSW 12.9 km/h 20.9 km/h 70% 0 mm
09:00 8.1 °C 3.4 °C 1007.7 hPa SSW 8 km/h 20.9 km/h 72% 0 mm
09:05 8.3 °C 3.3 °C 1007.7 hPa SSW 11.3 km/h 24.1 km/h 71% 0 mm
09:10 8.6 °C 3.4 °C 1007.3 hPa SW 9.7 km/h 24.1 km/h 70% 0 mm
09:15 9 °C 3 °C 1007.7 hPa SSW 11.3 km/h 22.5 km/h 66% 0 mm
09:20 9.1 °C 3.1 °C 1007.7 hPa SW 6.4 km/h 22.5 km/h 66% 0 mm
09:25 9.3 °C 2.4 °C 1007.7 hPa SW 11.3 km/h 22.5 km/h 62% 0 mm
09:30 9.3 °C 2.7 °C 1007.7 hPa SSW 12.9 km/h 24.1 km/h 63% 0 mm
09:35 9.6 °C 2.9 °C 1007.3 hPa SW 12.9 km/h 24.1 km/h 63% 0 mm
09:40 9.4 °C 2.7 °C 1007.3 hPa WSW 9.7 km/h 29 km/h 63% 0 mm
09:45 9.7 °C 3 °C 1007.3 hPa SSW 6.4 km/h 29 km/h 63% 0 mm
09:50 9.8 °C 2.9 °C 1007.3 hPa SSW 9.7 km/h 19.3 km/h 62% 0 mm
09:55 9.8 °C 2.7 °C 1007.3 hPa SW 11.3 km/h 24.1 km/h 61% 0 mm
10:05 9.9 °C 2.8 °C 1007.3 hPa SSW 11.3 km/h 27.4 km/h 61% 0 mm
10:10 10.2 °C 2.8 °C 1007.3 hPa SSW 9.7 km/h 24.1 km/h 60% 0 mm
10:15 10.5 °C 2.8 °C 1007.3 hPa SW 14.5 km/h 22.5 km/h 59% 0 mm
10:20 10.5 °C 3.3 °C 1007.3 hPa SW 8 km/h 22.5 km/h 61% 0 mm
10:25 10.8 °C 3.4 °C 1007.3 hPa WSW 8 km/h 22.5 km/h 60% 0 mm
10:30 11.2 °C 2.2 °C 1007.3 hPa WSW 14.5 km/h 24.1 km/h 54% 0 mm
10:35 11.3 °C 2.9 °C 1007.3 hPa SW 11.3 km/h 24.1 km/h 56% 0 mm
10:40 11.4 °C 2.4 °C 1007.3 hPa SW 17.7 km/h 29 km/h 54% 0 mm
10:45 11.9 °C 2.9 °C 1007.3 hPa SW 9.7 km/h 29 km/h 54% 0 mm
10:50 12.1 °C 3.6 °C 1007.3 hPa SW 6.4 km/h 22.5 km/h 56% 0 mm
10:55 11.6 °C 2.6 °C 1007.7 hPa SW 14.5 km/h 29 km/h 54% 0 mm
11:00 11.1 °C 2.9 °C 1007.7 hPa SSW 9.7 km/h 29 km/h 57% 0 mm
11:05 10.8 °C 2.6 °C 1007.7 hPa WSW 6.4 km/h 22.5 km/h 57% 0 mm
11:10 10.8 °C 3.1 °C 1007.7 hPa WSW 6.4 km/h 22.5 km/h 59% 0 mm
11:15 10.8 °C 2.8 °C 1007.7 hPa SW 6.4 km/h 19.3 km/h 58% 0 mm
11:20 10.9 °C 3.2 °C 1007.7 hPa SW 1.6 km/h 14.5 km/h 59% 0 mm
11:25 11.1 °C 2.9 °C 1007.7 hPa SW 8 km/h 16.1 km/h 57% 0 mm
11:30 11.2 °C 2.8 °C 1007.7 hPa SW 9.7 km/h 20.9 km/h 56% 0 mm
11:35 11.4 °C 2.7 °C 1007.7 hPa SW 8 km/h 20.9 km/h 55% 0 mm
11:40 11.4 °C 2.7 °C 1007.7 hPa SW 4.8 km/h 12.9 km/h 55% 0 mm
11:45 11.4 °C 2.2 °C 1007.7 hPa SW 11.3 km/h 16.1 km/h 53% 0 mm
11:50 11.5 °C 2.3 °C 1007.7 hPa SW 8 km/h 17.7 km/h 53% 0 mm
11:55 11.6 °C 2.1 °C 1007.7 hPa SW 4.8 km/h 17.7 km/h 52% 0 mm
12:05 11.9 °C 2.6 °C 1007.7 hPa SW 4.8 km/h 16.1 km/h 53% 0 mm
12:10 12 °C 2.4 °C 1007.7 hPa SW 6.4 km/h 19.3 km/h 52% 0 mm
12:15 12.2 °C 2.4 °C 1007.3 hPa WSW 9.7 km/h 19.3 km/h 51% 0 mm
12:20 12.5 °C 2.7 °C 1007.3 hPa SW 6.4 km/h 14.5 km/h 51% 0 mm
12:25 12.9 °C 3.1 °C 1007.3 hPa South 6.4 km/h 14.5 km/h 51% 0 mm
12:35 13.5 °C 3.6 °C 1007.3 hPa West 4.8 km/h 14.5 km/h 51% 0 mm
12:45 13.8 °C 3.9 °C 1007 hPa SSE 4.8 km/h 9.7 km/h 51% 0 mm
12:50 13.6 °C 4.2 °C 1007 hPa SSE 1.6 km/h 9.7 km/h 53% 0 mm
12:55 13.5 °C 4.1 °C 1007 hPa South 3.2 km/h 9.7 km/h 53% 0 mm
13:00 13.5 °C 4.9 °C 1007 hPa SE 1.6 km/h 11.3 km/h 56% 0 mm
13:05 13.5 °C 4.9 °C 1007 hPa Calm   11.3 km/h 56% 0 mm
13:10 14.1 °C 4.3 °C 1007 hPa SW 1.6 km/h 9.7 km/h 52% 0 mm
13:15 14.1 °C 3.8 °C 1007 hPa SSW 1.6 km/h 8 km/h 50% 0 mm
13:20 14.1 °C 4.1 °C 1006.7 hPa SSW 4.8 km/h 9.7 km/h 51% 0 mm
13:30 13.9 °C 3.7 °C 1006.7 hPa SW 4.8 km/h 12.9 km/h 50% 0 mm
13:35 13.8 °C 3.6 °C 1006.7 hPa SSW 4.8 km/h 12.9 km/h 50% 0 mm
13:40 13.9 °C 4.2 °C 1006.7 hPa SSW 3.2 km/h 9.7 km/h 52% 0 mm
13:45 14.1 °C 3.8 °C 1006.7 hPa SSW 3.2 km/h 9.7 km/h 50% 0 mm
13:55 14.2 °C 4.8 °C 1006.7 hPa Calm   9.7 km/h 53% 0 mm
14:00 14.5 °C 4.8 °C 1006.7 hPa South 1.6 km/h 9.7 km/h 52% 0 mm
14:05 14.7 °C 5.2 °C 1006.7 hPa Calm   8 km/h 53% 0 mm
14:10 14.7 °C 4.7 °C 1006.7 hPa SSW 1.6 km/h 4.8 km/h 51% 0 mm
14:15 14.8 °C 5 °C 1006.3 hPa Calm   4.8 km/h 52% 0 mm
14:20 14.9 °C 5.2 °C 1006.3 hPa WSW 1.6 km/h 9.7 km/h 52% 0 mm
14:30 15.2 °C 3.4 °C 1006.3 hPa West 8 km/h 19.3 km/h 45% 0 mm
14:35 15.1 °C 3.3 °C 1006.7 hPa WSW 6.4 km/h 19.3 km/h 45% 0 mm
14:40 15 °C 2.8 °C 1006.7 hPa WSW 6.4 km/h 19.3 km/h 44% 0 mm
14:45 15 °C 2.8 °C 1006.7 hPa WSW 9.7 km/h 16.1 km/h 44% 0 mm
14:50 14.9 °C 2.7 °C 1006.7 hPa WSW 9.7 km/h 16.1 km/h 44% 0 mm
14:55 14.8 °C 2.9 °C 1006.7 hPa WSW 8 km/h 14.5 km/h 45% 0 mm
15:00 14.7 °C 2.9 °C 1006.7 hPa West 9.7 km/h 20.9 km/h 45% 0 mm
15:05 14.7 °C 3.2 °C 1006.7 hPa WSW 6.4 km/h 20.9 km/h 46% 0 mm
15:10 14.8 °C 2.9 °C 1006.7 hPa WSW 11.3 km/h 17.7 km/h 45% 0 mm
15:15 15 °C 2.8 °C 1006.7 hPa WSW 8 km/h 22.5 km/h 44% 0 mm
15:20 15 °C 3.2 °C 1006.7 hPa West 6.4 km/h 22.5 km/h 45% 0 mm
15:25 15 °C 2.8 °C 1006.7 hPa WSW 6.4 km/h 22.5 km/h 44% 0 mm
15:30 15.1 °C 2.6 °C 1006.7 hPa WSW 9.7 km/h 17.7 km/h 43% 0 mm
15:35 15.2 °C 3.1 °C 1006.7 hPa West 8 km/h 20.9 km/h 44% 0 mm
15:40 15.3 °C 3.1 °C 1006.7 hPa WSW 8 km/h 20.9 km/h 44% 0 mm
15:45 15.3 °C 3.4 °C 1006.7 hPa WSW 8 km/h 16.1 km/h 45% 0 mm
15:50 15.3 °C 3.2 °C 1006.7 hPa SW 8 km/h 22.5 km/h 44% 0 mm
15:55 15.2 °C 3.1 °C 1006.7 hPa West 8 km/h 22.5 km/h 44% 0 mm
16:00 15.2 °C 2.7 °C 1006.7 hPa SW 6.4 km/h 17.7 km/h 43% 0 mm
16:05 15.1 °C 3.3 °C 1006.7 hPa WSW 6.4 km/h 16.1 km/h 45% 0 mm
16:10 15.1 °C 3.3 °C 1006.7 hPa WSW 4.8 km/h 16.1 km/h 45% 0 mm
16:20 15.3 °C 2.8 °C 1006.7 hPa WSW 8 km/h 16.1 km/h 43% 0 mm
16:25 15.3 °C 3.1 °C 1006.7 hPa WSW 4.8 km/h 16.1 km/h 44% 0 mm
16:30 15.2 °C 2.4 °C 1007 hPa West 9.7 km/h 16.1 km/h 42% 0 mm
16:35 15.1 °C 2.9 °C 1006.7 hPa WSW 1.6 km/h 14.5 km/h 44% 0 mm
16:40 15 °C 2.8 °C 1007 hPa WSW 4.8 km/h 14.5 km/h 44% 0 mm
16:45 15 °C 3.2 °C 1007 hPa SW 3.2 km/h 11.3 km/h 45% 0 mm
16:50 15 °C 3.5 °C 1007 hPa Calm   11.3 km/h 46% 0 mm
16:55 15 °C 3.2 °C 1007 hPa SW 6.4 km/h 12.9 km/h 45% 0 mm
17:00 15 °C 3.2 °C 1007 hPa WSW 3.2 km/h 12.9 km/h 45% 0 mm
17:05 15 °C 2.8 °C 1007 hPa SW 3.2 km/h 12.9 km/h 44% 0 mm
17:10 15 °C 3.8 °C 1007 hPa SW 3.2 km/h 12.9 km/h 47% 0 mm
17:15 15 °C 3.5 °C 1007 hPa WSW 3.2 km/h 14.5 km/h 46% 0 mm
17:20 15 °C 3.5 °C 1007 hPa WSW 1.6 km/h 17.7 km/h 46% 0 mm
17:25 15 °C 3.2 °C 1007 hPa WSW 8 km/h 17.7 km/h 45% 0 mm
17:30 15 °C 3.5 °C 1007.3 hPa WSW 4.8 km/h 14.5 km/h 46% 0 mm
17:35 15.1 °C 3.6 °C 1007.3 hPa WSW 3.2 km/h 14.5 km/h 46% 0 mm
17:40 15.2 °C 3.3 °C 1007.3 hPa SW 6.4 km/h 12.9 km/h 45% 0 mm
17:45 15.2 °C 3.4 °C 1007.3 hPa SW 6.4 km/h 12.9 km/h 45% 0 mm
17:50 15.3 °C 3.1 °C 1007.3 hPa WSW 9.7 km/h 16.1 km/h 44% 0 mm
17:55 15.3 °C 3.2 °C 1007.3 hPa SW 6.4 km/h 16.1 km/h 44% 0 mm
18:00 15.3 °C 3.4 °C 1007.3 hPa WSW 8 km/h 12.9 km/h 45% 0 mm
18:05 15.2 °C 3.4 °C 1007.3 hPa West 8 km/h 14.5 km/h 45% 0 mm
18:10 15.2 °C 3.6 °C 1007.3 hPa WSW 4.8 km/h 14.5 km/h 46% 0 mm
18:15 15.1 °C 3.2 °C 1007.3 hPa WSW 1.6 km/h 12.9 km/h 45% 0 mm
18:20 15 °C 3.5 °C 1007.3 hPa West 3.2 km/h 9.7 km/h 46% 0 mm
18:25 15 °C 3.8 °C 1007.3 hPa SW 1.6 km/h 9.7 km/h 47% 0 mm
18:30 14.8 °C 3.9 °C 1007.3 hPa Calm   9.7 km/h 48% 0 mm
18:35 14.7 °C 3.8 °C 1007.3 hPa WSW 1.6 km/h 9.7 km/h 48% 0 mm
18:40 14.6 °C 3.7 °C 1007.3 hPa WSW 1.6 km/h 6.4 km/h 48% 0 mm
18:45 14.4 °C 3.6 °C 1007.3 hPa West 3.2 km/h 9.7 km/h 48% 0 mm
18:50 14.4 °C 3.6 °C 1007.3 hPa WSW 3.2 km/h 9.7 km/h 48% 0 mm
18:55 14.4 °C 3.5 °C 1007.3 hPa Calm   9.7 km/h 48% 0 mm
19:00 14.2 °C 3.7 °C 1007.7 hPa Calm   8 km/h 49% 0 mm
19:05 14.1 °C 4.1 °C 1007.7 hPa Calm   8 km/h 51% 0 mm
19:10 13.9 °C 4 °C 1007.7 hPa West 1.6 km/h 8 km/h 51% 0 mm
19:15 13.8 °C 3.6 °C 1007.7 hPa West 3.2 km/h 6.4 km/h 50% 0 mm
19:20 13.8 °C 3.6 °C 1007.7 hPa Calm   8 km/h 50% 0 mm
19:25 13.8 °C 3.8 °C 1007.7 hPa Calm   8 km/h 51% 0 mm
19:30 13.7 °C 3.8 °C 1007.7 hPa Calm   6.4 km/h 51% 0 mm
19:40 13.6 °C 3.6 °C 1007.7 hPa WNW 4.8 km/h 8 km/h 51% 0 mm
19:45 13.5 °C 4.1 °C 1007.7 hPa Calm   8 km/h 53% 0 mm
19:50 13.3 °C 3.7 °C 1007.7 hPa Calm   4.8 km/h 52% 0 mm
19:55 13.2 °C 4.1 °C 1007.7 hPa Calm   6.4 km/h 54% 0 mm
20:00 13.1 °C 3.7 °C 1007.7 hPa Calm   6.4 km/h 53% 0 mm
20:05 13.1 °C 3.7 °C 1008 hPa WNW 1.6 km/h 6.4 km/h 53% 0 mm
20:10 13.1 °C 3.9 °C 1008 hPa Calm   6.4 km/h 54% 0 mm
20:15 12.9 °C 3.8 °C 1008 hPa Calm   1.6 km/h 54% 0 mm
20:20 12.8 °C 3.8 °C 1008 hPa Calm   3.2 km/h 54% 0 mm
20:25 12.8 °C 3.9 °C 1008 hPa Calm   6.4 km/h 55% 0 mm
20:30 12.7 °C 3.9 °C 1008 hPa Calm   6.4 km/h 55% 0 mm
20:35 12.8 °C 3.9 °C 1008 hPa NW 1.6 km/h 6.4 km/h 55% 0 mm
20:40 12.8 °C 4.2 °C 1008 hPa Calm   6.4 km/h 56% 0 mm
20:45 12.7 °C 3.9 °C 1008 hPa WNW 4.8 km/h 9.7 km/h 55% 0 mm
20:50 12.7 °C 3.9 °C 1008 hPa WNW 3.2 km/h 9.7 km/h 55% 0 mm
20:55 12.7 °C 4.1 °C 1008 hPa Calm   6.4 km/h 56% 0 mm
21:00 12.7 °C 4.1 °C 1008.4 hPa Calm   4.8 km/h 56% 0 mm
21:05 12.6 °C 4 °C 1008.4 hPa WNW 1.6 km/h 4.8 km/h 56% 0 mm
21:10 12.6 °C 3.8 °C 1008.4 hPa Calm   4.8 km/h 55% 0 mm
21:15 12.7 °C 3.9 °C 1008.4 hPa Calm   1.6 km/h 55% 0 mm
21:20 12.3 °C 4 °C 1008.4 hPa Calm   1.6 km/h 57% 0 mm
21:25 11.9 °C 5.1 °C 1008.4 hPa Calm     63% 0 mm
21:30 11.7 °C 4.6 °C 1008.4 hPa Calm   3.2 km/h 62% 0 mm
21:40 11.5 °C 4.9 °C 1008.4 hPa Calm     64% 0 mm
21:45 11.4 °C 4.9 °C 1008 hPa WNW 1.6 km/h 3.2 km/h 64% 0 mm
21:50 11.2 °C 5.1 °C 1008.4 hPa Calm   3.2 km/h 66% 0 mm
21:55 11 °C 4.9 °C 1008 hPa WNW 1.6 km/h 3.2 km/h 66% 0 mm
22:00 11 °C 4.7 °C 1008 hPa Calm   3.2 km/h 65% 0 mm
22:05 11.2 °C 4.2 °C 1008 hPa SSW 1.6 km/h 6.4 km/h 62% 0 mm
22:10 11.6 °C 4.5 °C 1008.4 hPa Calm   6.4 km/h 62% 0 mm
22:15 11.6 °C 4.8 °C 1008 hPa Calm   1.6 km/h 63% 0 mm
22:20 11.3 °C 5 °C 1008.4 hPa Calm   3.2 km/h 65% 0 mm
22:25 10.9 °C 5.2 °C 1008.4 hPa Calm   3.2 km/h 68% 0 mm
22:30 10.6 °C 5.5 °C 1008.4 hPa Calm   3.2 km/h 71% 0 mm
22:35 10.4 °C 5.2 °C 1008.4 hPa Calm   1.6 km/h 70% 0 mm
22:40 10.3 °C 4.9 °C 1008.4 hPa Calm     69% 0 mm
22:45 10.4 °C 5 °C 1008.4 hPa Calm     69% 0 mm
22:55 10.2 °C 5.7 °C 1008.4 hPa Calm   1.6 km/h 74% 0 mm
23:00 10 °C 5.9 °C 1008.4 hPa SSW 1.6 km/h 3.2 km/h 76% 0 mm
23:05 9.8 °C 5.4 °C 1008.4 hPa Calm   3.2 km/h 74% 0 mm
23:10 9.7 °C 5.1 °C 1008.4 hPa Calm   3.2 km/h 73% 0 mm
23:15 9.7 °C 5.3 °C 1008.4 hPa Calm     74% 0 mm
23:20 9.6 °C 5.2 °C 1008 hPa Calm     74% 0 mm
23:25 9.4 °C 4.8 °C 1008 hPa Calm     73% 0 mm
23:30 9.5 °C 4.7 °C 1008 hPa Calm     72% 0 mm
23:35 9.5 °C 4.5 °C 1008 hPa Calm     71% 0 mm
23:40 9.6 °C 5 °C 1008 hPa Calm     73% 0 mm
23:45 9.6 °C 4.8 °C 1008 hPa Calm     72% 0 mm
23:50 9.8 °C 4.4 °C 1008 hPa Calm     69% 0 mm
23:55 9.9 °C 4.5 °C 1008 hPa Calm     69% 0 mm
Westford Weather
Compliments of Weather Underground

 
 
Current Radar Loop:

Copyright © WestfordWeather.net 2007-2014. All rights reserved.